createdAt,value
2018-05-15T00:00:11.115Z,19.45
2018-05-15T00:01:11.126Z,19.41
2018-05-15T00:02:11.063Z,19.45
2018-05-15T00:03:11.051Z,19.38
2018-05-15T00:04:11.035Z,19.49
2018-05-15T00:05:11.019Z,19.44
2018-05-15T00:06:11.004Z,19.34
2018-05-15T00:07:10.991Z,19.38
2018-05-15T00:08:10.974Z,19.37
2018-05-15T00:09:10.965Z,19.41
2018-05-15T00:10:10.946Z,19.39
2018-05-15T00:11:10.932Z,19.34
2018-05-15T00:12:10.917Z,19.45
2018-05-15T00:13:10.901Z,19.35
2018-05-15T00:14:10.887Z,19.35
2018-05-15T00:15:10.878Z,19.37
2018-05-15T00:16:10.859Z,19.27
2018-05-15T00:17:10.843Z,19.32
2018-05-15T00:18:10.829Z,19.35
2018-05-15T00:19:10.815Z,19.26
2018-05-15T00:20:10.797Z,19.22
2018-05-15T00:21:10.785Z,19.20
2018-05-15T00:22:10.768Z,19.16
2018-05-15T00:23:10.755Z,19.22
2018-05-15T00:24:10.743Z,19.20
2018-05-15T00:25:10.724Z,19.19
2018-05-15T00:26:10.711Z,19.17
2018-05-15T00:27:10.695Z,19.19
2018-05-15T00:28:10.684Z,19.20
2018-05-15T00:29:10.663Z,19.15
2018-05-15T00:30:10.649Z,19.09
2018-05-15T00:31:10.646Z,19.09
2018-05-15T00:32:10.622Z,19.09
2018-05-15T00:33:10.615Z,19.08
2018-05-15T00:34:10.590Z,19.09
2018-05-15T00:35:10.576Z,19.19
2018-05-15T00:36:10.561Z,19.08
2018-05-15T00:37:10.545Z,19.12
2018-05-15T00:38:10.530Z,19.16
2018-05-15T00:39:10.517Z,19.15
2018-05-15T00:40:10.503Z,19.09
2018-05-15T00:41:10.485Z,18.91
2018-05-15T00:42:10.472Z,19.08
2018-05-15T00:43:10.458Z,19.08
2018-05-15T00:44:10.445Z,19.01
2018-05-15T00:45:10.428Z,18.97
2018-05-15T00:46:10.412Z,19.04
2018-05-15T00:47:10.406Z,18.98
2018-05-15T00:48:10.382Z,19.01
2018-05-15T00:49:10.368Z,18.97
2018-05-15T00:50:10.352Z,18.89
2018-05-15T00:51:10.337Z,18.96
2018-05-15T00:52:10.325Z,18.98
2018-05-15T00:53:10.306Z,18.97
2018-05-15T00:54:10.299Z,18.97
2018-05-15T00:55:10.278Z,18.83
2018-05-15T00:56:10.263Z,18.86
2018-05-15T00:57:10.248Z,18.85
2018-05-15T00:58:10.232Z,18.85
2018-05-15T00:59:10.217Z,18.86
2018-05-15T01:00:10.205Z,18.83
2018-05-15T01:01:10.188Z,18.83
2018-05-15T01:02:10.171Z,18.76
2018-05-15T01:03:10.156Z,18.74
2018-05-15T01:04:10.140Z,18.74
2018-05-15T01:05:10.126Z,18.73
2018-05-15T01:06:10.113Z,18.78
2018-05-15T01:07:10.096Z,18.70
2018-05-15T01:08:10.082Z,18.70
2018-05-15T01:09:10.065Z,18.71
2018-05-15T01:10:10.052Z,18.71
2018-05-15T01:11:10.042Z,18.70
2018-05-15T01:12:10.021Z,18.70
2018-05-15T01:13:10.006Z,18.61
2018-05-15T01:14:09.991Z,18.58
2018-05-15T01:15:09.976Z,18.67
2018-05-15T01:16:09.959Z,18.58
2018-05-15T01:17:09.946Z,18.64
2018-05-15T01:18:09.984Z,18.64
2018-05-15T01:19:09.917Z,18.60
2018-05-15T01:20:09.899Z,18.57
2018-05-15T01:21:09.887Z,18.64
2018-05-15T01:22:09.870Z,18.64
2018-05-15T01:23:09.855Z,18.60
2018-05-15T01:24:09.842Z,18.53
2018-05-15T01:25:09.825Z,18.57
2018-05-15T01:26:09.816Z,18.63
2018-05-15T01:27:09.794Z,18.51
2018-05-15T01:28:09.783Z,18.60
2018-05-15T01:29:09.763Z,18.52
2018-05-15T01:30:09.749Z,18.57
2018-05-15T01:31:09.733Z,18.57
2018-05-15T01:32:09.719Z,18.55
2018-05-15T01:33:09.703Z,18.51
2018-05-15T01:34:09.688Z,18.57
2018-05-15T01:35:09.690Z,18.46
2018-05-15T01:36:09.656Z,18.48
2018-05-15T01:37:09.642Z,18.39
2018-05-15T01:38:09.627Z,18.48
2018-05-15T01:39:09.611Z,18.42
2018-05-15T01:40:09.601Z,18.43
2018-05-15T01:41:09.591Z,18.42
2018-05-15T01:42:09.567Z,18.48
2018-05-15T01:43:09.552Z,18.36
2018-05-15T01:44:09.537Z,18.37
2018-05-15T01:45:09.521Z,18.41
2018-05-15T01:46:09.505Z,18.36
2018-05-15T01:47:09.491Z,18.39
2018-05-15T01:48:09.479Z,18.34
2018-05-15T01:49:09.462Z,18.31
2018-05-15T01:50:09.445Z,18.28
2018-05-15T01:51:09.506Z,18.31
2018-05-15T01:52:09.428Z,18.27
2018-05-15T01:53:09.403Z,18.21
2018-05-15T01:54:09.383Z,18.16
2018-05-15T01:55:09.367Z,18.26
2018-05-15T01:56:09.352Z,18.16
2018-05-15T01:57:09.337Z,18.26
2018-05-15T01:58:09.319Z,18.19
2018-05-15T01:59:09.307Z,18.23
2018-05-15T02:00:09.291Z,18.12
2018-05-15T02:01:09.276Z,18.06
2018-05-15T02:02:09.259Z,18.11
2018-05-15T02:03:09.245Z,18.08
2018-05-15T02:04:09.229Z,18.11
2018-05-15T02:05:09.217Z,18.06
2018-05-15T02:06:09.198Z,18.00
2018-05-15T02:07:09.183Z,18.11
2018-05-15T02:08:09.169Z,17.98
2018-05-15T02:09:09.155Z,18.00
2018-05-15T02:10:09.141Z,17.95
2018-05-15T02:11:09.121Z,17.95
2018-05-15T02:12:09.105Z,17.97
2018-05-15T02:13:09.089Z,17.94
2018-05-15T02:14:09.079Z,17.91
2018-05-15T02:15:09.057Z,18.02
2018-05-15T02:16:09.099Z,18.02
2018-05-15T02:17:09.030Z,18.02
2018-05-15T02:18:09.014Z,17.91
2018-05-15T02:19:08.996Z,17.93
2018-05-15T02:20:08.981Z,17.94
2018-05-15T02:21:08.965Z,17.95
2018-05-15T02:22:08.949Z,17.95
2018-05-15T02:23:08.936Z,17.87
2018-05-15T02:24:08.919Z,17.87
2018-05-15T02:25:08.903Z,17.84
2018-05-15T02:26:08.888Z,18.00
2018-05-15T02:27:08.877Z,17.86
2018-05-15T02:28:08.858Z,17.84
2018-05-15T02:29:08.842Z,17.93
2018-05-15T02:30:08.826Z,17.87
2018-05-15T02:31:08.810Z,17.90
2018-05-15T02:32:08.795Z,17.95
2018-05-15T02:33:08.779Z,17.90
2018-05-15T02:34:08.761Z,17.82
2018-05-15T02:35:08.749Z,17.80
2018-05-15T02:36:08.732Z,17.79
2018-05-15T02:37:08.717Z,17.82
2018-05-15T02:38:08.700Z,17.79
2018-05-15T02:39:08.686Z,17.78
2018-05-15T02:40:08.671Z,17.76
2018-05-15T02:41:08.654Z,17.79
2018-05-15T02:42:08.639Z,17.78
2018-05-15T02:43:08.623Z,17.73
2018-05-15T02:44:08.606Z,17.76
2018-05-15T02:45:08.590Z,17.73
2018-05-15T02:46:08.575Z,17.72
2018-05-15T02:47:08.562Z,17.78
2018-05-15T02:48:08.543Z,17.75
2018-05-15T02:49:08.530Z,17.71
2018-05-15T02:50:08.513Z,17.73
2018-05-15T02:51:08.497Z,17.69
2018-05-15T02:52:08.486Z,17.75
2018-05-15T02:53:08.465Z,17.69
2018-05-15T02:54:08.450Z,17.80
2018-05-15T02:55:08.445Z,17.72
2018-05-15T02:56:08.421Z,17.72
2018-05-15T02:57:08.405Z,17.65
2018-05-15T02:58:08.391Z,17.69
2018-05-15T02:59:08.372Z,17.63
2018-05-15T03:00:08.391Z,17.66
2018-05-15T03:01:08.339Z,17.59
2018-05-15T03:02:08.326Z,17.53
2018-05-15T03:03:08.308Z,17.56
2018-05-15T03:04:08.293Z,17.52
2018-05-15T03:05:08.279Z,17.53
2018-05-15T03:06:08.260Z,17.53
2018-05-15T03:07:08.246Z,17.57
2018-05-15T03:08:08.236Z,17.50
2018-05-15T03:09:08.212Z,17.49
2018-05-15T03:10:08.197Z,17.50
2018-05-15T03:11:08.181Z,17.46
2018-05-15T03:12:08.189Z,17.52
2018-05-15T03:13:08.163Z,17.41
2018-05-15T03:14:08.142Z,17.50
2018-05-15T03:15:08.122Z,17.34
2018-05-15T03:16:08.104Z,17.41
2018-05-15T03:17:08.087Z,17.35
2018-05-15T03:18:08.071Z,17.34
2018-05-15T03:19:08.054Z,17.31
2018-05-15T03:20:08.039Z,17.39
2018-05-15T03:21:08.027Z,17.31
2018-05-15T03:22:08.008Z,17.34
2018-05-15T03:23:07.992Z,17.38
2018-05-15T03:24:08.694Z,17.37
2018-05-15T03:25:07.962Z,17.37
2018-05-15T03:26:07.944Z,17.41
2018-05-15T03:27:07.928Z,17.42
2018-05-15T03:28:07.912Z,17.37
2018-05-15T03:29:07.894Z,17.39
2018-05-15T03:30:07.882Z,17.39
2018-05-15T03:31:07.867Z,17.38
2018-05-15T03:32:07.890Z,17.38
2018-05-15T03:33:07.830Z,17.38
2018-05-15T03:34:07.815Z,17.38
2018-05-15T03:35:07.800Z,17.34
2018-05-15T03:36:07.785Z,17.31
2018-05-15T03:37:07.767Z,17.30
2018-05-15T03:38:07.756Z,17.28
2018-05-15T03:39:07.789Z,17.27
2018-05-15T03:40:07.720Z,17.20
2018-05-15T03:41:07.708Z,17.20
2018-05-15T03:42:07.688Z,17.14
2018-05-15T03:43:07.679Z,17.16
2018-05-15T03:44:07.656Z,17.19
2018-05-15T03:45:07.641Z,17.20
2018-05-15T03:46:07.622Z,17.20
2018-05-15T03:47:07.625Z,17.20
2018-05-15T03:48:07.599Z,17.14
2018-05-15T03:49:07.575Z,17.12
2018-05-15T03:50:07.559Z,17.07
2018-05-15T03:51:07.543Z,17.12
2018-05-15T03:52:07.546Z,17.13
2018-05-15T03:53:07.511Z,17.12
2018-05-15T03:54:07.496Z,17.10
2018-05-15T03:55:07.481Z,17.14
2018-05-15T03:56:07.466Z,17.13
2018-05-15T03:57:07.446Z,17.09
2018-05-15T03:58:07.430Z,17.17
2018-05-15T03:59:07.417Z,17.17
2018-05-15T04:00:07.441Z,17.12
2018-05-15T04:01:07.381Z,17.16
2018-05-15T04:02:07.367Z,17.14
2018-05-15T04:03:07.354Z,17.13
2018-05-15T04:04:07.388Z,17.04
2018-05-15T04:05:07.318Z,17.12
2018-05-15T04:06:07.953Z,17.02
2018-05-15T04:07:07.344Z,17.05
2018-05-15T04:08:07.281Z,17.07
2018-05-15T04:09:07.253Z,17.07
2018-05-15T04:10:07.238Z,17.04
2018-05-15T04:11:07.363Z,17.04
2018-05-15T04:12:07.239Z,17.04
2018-05-15T04:13:07.190Z,16.99
2018-05-15T04:14:07.172Z,17.05
2018-05-15T04:15:07.167Z,16.98
2018-05-15T04:16:07.141Z,17.02
2018-05-15T04:17:07.125Z,17.04
2018-05-15T04:18:07.169Z,16.97
2018-05-15T04:19:07.154Z,17.02
2018-05-15T04:20:07.146Z,16.99
2018-05-15T04:21:07.081Z,16.99
2018-05-15T04:22:07.098Z,16.99
2018-05-15T04:23:07.140Z,16.99
2018-05-15T04:24:08.091Z,16.97
2018-05-15T04:25:07.109Z,16.99
2018-05-15T04:26:07.066Z,17.01
2018-05-15T04:27:07.022Z,16.97
2018-05-15T04:28:07.119Z,16.91
2018-05-15T04:29:06.932Z,16.98
2018-05-15T04:30:06.965Z,17.04
2018-05-15T04:31:06.954Z,17.02
2018-05-15T04:32:06.915Z,16.99
2018-05-15T04:33:06.873Z,16.99
2018-05-15T04:34:06.870Z,17.04
2018-05-15T04:35:06.886Z,16.99
2018-05-15T04:36:06.833Z,16.98
2018-05-15T04:37:06.803Z,17.01
2018-05-15T04:38:06.787Z,16.99
2018-05-15T04:39:06.797Z,16.98
2018-05-15T04:40:06.792Z,17.04
2018-05-15T04:41:06.736Z,16.98
2018-05-15T04:42:06.721Z,17.05
2018-05-15T04:43:06.745Z,16.98
2018-05-15T04:44:06.693Z,17.02
2018-05-15T04:45:06.709Z,17.04
2018-05-15T04:46:06.656Z,17.07
2018-05-15T04:47:06.642Z,17.05
2018-05-15T04:48:06.628Z,17.05
2018-05-15T04:49:06.611Z,17.09
2018-05-15T04:50:06.600Z,17.05
2018-05-15T04:51:06.576Z,17.07
2018-05-15T04:52:06.721Z,17.10
2018-05-15T04:53:08.129Z,17.07
2018-05-15T04:54:07.135Z,17.04
2018-05-15T04:55:06.564Z,17.10
2018-05-15T04:56:06.504Z,17.04
2018-05-15T04:57:06.479Z,17.07
2018-05-15T04:58:06.510Z,17.04
2018-05-15T04:59:06.454Z,17.07
2018-05-15T05:00:06.472Z,17.04
2018-05-15T05:01:06.420Z,17.07
2018-05-15T05:02:06.486Z,17.07
2018-05-15T05:03:06.433Z,17.07
2018-05-15T05:04:06.367Z,17.10
2018-05-15T05:05:06.350Z,17.12
2018-05-15T05:06:06.335Z,17.12
2018-05-15T05:07:06.326Z,17.14
2018-05-15T05:08:06.312Z,17.17
2018-05-15T05:09:06.319Z,17.22
2018-05-15T05:10:06.273Z,17.10
2018-05-15T05:11:06.283Z,17.22
2018-05-15T05:12:06.238Z,17.24
2018-05-15T05:13:06.219Z,17.22
2018-05-15T05:14:06.202Z,17.32
2018-05-15T05:15:06.188Z,17.31
2018-05-15T05:16:06.176Z,17.30
2018-05-15T05:17:06.157Z,17.32
2018-05-15T05:18:06.141Z,17.32
2018-05-15T05:19:06.124Z,17.32
2018-05-15T05:20:06.110Z,17.44
2018-05-15T05:21:06.190Z,17.34
2018-05-15T05:22:06.074Z,17.37
2018-05-15T05:23:06.063Z,17.35
2018-05-15T05:24:06.045Z,17.54
2018-05-15T05:25:06.028Z,17.52
2018-05-15T05:26:06.011Z,17.50
2018-05-15T05:27:06.049Z,17.56
2018-05-15T05:28:06.017Z,17.50
2018-05-15T05:29:05.963Z,17.63
2018-05-15T05:30:05.950Z,17.59
2018-05-15T05:31:05.933Z,17.63
2018-05-15T05:32:05.918Z,17.65
2018-05-15T05:33:05.901Z,17.75
2018-05-15T05:34:05.884Z,17.73
2018-05-15T05:35:05.869Z,17.75
2018-05-15T05:36:05.852Z,17.76
2018-05-15T05:37:05.836Z,17.80
2018-05-15T05:38:05.820Z,17.78
2018-05-15T05:39:05.809Z,17.79
2018-05-15T05:40:05.814Z,17.84
2018-05-15T05:41:05.772Z,17.84
2018-05-15T05:42:05.761Z,17.93
2018-05-15T05:43:05.740Z,17.97
2018-05-15T05:44:05.733Z,17.87
2018-05-15T05:45:05.710Z,17.98
2018-05-15T05:46:05.694Z,18.02
2018-05-15T05:47:05.678Z,17.98
2018-05-15T05:48:05.661Z,18.09
2018-05-15T05:49:05.646Z,18.06
2018-05-15T05:50:05.631Z,18.13
2018-05-15T05:51:05.616Z,18.11
2018-05-15T05:52:05.627Z,18.11
2018-05-15T05:53:05.588Z,18.18
2018-05-15T05:54:05.567Z,18.27
2018-05-15T05:55:05.554Z,18.26
2018-05-15T05:56:05.539Z,18.28
2018-05-15T05:57:05.520Z,18.28
2018-05-15T05:58:05.504Z,18.31
2018-05-15T05:59:05.488Z,18.34
2018-05-15T06:00:05.479Z,18.45
2018-05-15T06:01:05.457Z,18.43
2018-05-15T06:02:05.442Z,18.46
2018-05-15T06:03:05.429Z,18.48
2018-05-15T06:04:05.412Z,18.42
2018-05-15T06:05:05.395Z,18.48
2018-05-15T06:06:05.381Z,18.49
2018-05-15T06:07:05.366Z,18.48
2018-05-15T06:08:05.349Z,18.58
2018-05-15T06:09:05.335Z,18.58
2018-05-15T06:10:05.320Z,18.53
2018-05-15T06:11:05.304Z,18.58
2018-05-15T06:12:05.291Z,18.64
2018-05-15T06:13:05.295Z,18.63
2018-05-15T06:14:05.258Z,18.66
2018-05-15T06:15:05.241Z,18.74
2018-05-15T06:16:05.227Z,18.71
2018-05-15T06:17:05.212Z,18.64
2018-05-15T06:18:05.195Z,18.74
2018-05-15T06:19:05.180Z,18.79
2018-05-15T06:20:05.163Z,18.81
2018-05-15T06:21:05.186Z,18.81
2018-05-15T06:22:05.133Z,18.81
2018-05-15T06:23:05.117Z,18.92
2018-05-15T06:24:05.102Z,18.83
2018-05-15T06:25:05.090Z,18.82
2018-05-15T06:26:05.077Z,18.83
2018-05-15T06:27:05.055Z,18.86
2018-05-15T06:28:05.047Z,18.89
2018-05-15T06:29:05.026Z,18.91
2018-05-15T06:30:05.015Z,18.96
2018-05-15T06:31:04.995Z,19.00
2018-05-15T06:32:04.980Z,19.01
2018-05-15T06:33:04.964Z,19.08
2018-05-15T06:34:04.949Z,19.07
2018-05-15T06:35:04.934Z,19.08
2018-05-15T06:36:04.923Z,19.07
2018-05-15T06:37:04.905Z,19.11
2018-05-15T06:38:04.889Z,19.17
2018-05-15T06:39:04.872Z,19.17
2018-05-15T06:40:04.860Z,19.17
2018-05-15T06:41:04.843Z,19.30
2018-05-15T06:42:04.830Z,19.27
2018-05-15T06:43:04.814Z,19.29
2018-05-15T06:44:04.801Z,19.23
2018-05-15T06:45:04.785Z,19.29
2018-05-15T06:46:04.770Z,19.35
2018-05-15T06:47:04.755Z,19.35
2018-05-15T06:48:04.740Z,19.32
2018-05-15T06:49:04.723Z,19.38
2018-05-15T06:50:04.706Z,19.42
2018-05-15T06:51:04.695Z,19.49
2018-05-15T06:52:04.678Z,19.49
2018-05-15T06:53:04.665Z,19.52
2018-05-15T06:54:04.648Z,19.48
2018-05-15T06:55:04.636Z,19.52
2018-05-15T06:56:04.618Z,19.62
2018-05-15T06:57:04.601Z,19.71
2018-05-15T06:58:04.588Z,19.63
2018-05-15T06:59:04.572Z,19.60
2018-05-15T07:00:04.561Z,19.67
2018-05-15T07:01:04.543Z,19.67
2018-05-15T07:02:04.529Z,19.67
2018-05-15T07:03:04.514Z,19.77
2018-05-15T07:04:04.498Z,19.70
2018-05-15T07:05:04.482Z,19.72
2018-05-15T07:06:04.468Z,19.71
2018-05-15T07:07:04.453Z,19.84
2018-05-15T07:08:04.437Z,19.85
2018-05-15T07:09:04.422Z,19.81
2018-05-15T07:10:04.409Z,19.81
2018-05-15T07:11:04.393Z,19.89
2018-05-15T07:12:04.382Z,19.89
2018-05-15T07:13:04.371Z,19.96
2018-05-15T07:14:04.380Z,20.04
2018-05-15T07:15:04.335Z,20.00
2018-05-15T07:16:04.326Z,20.03
2018-05-15T07:17:04.304Z,20.02
2018-05-15T07:18:04.289Z,20.04
2018-05-15T07:19:04.277Z,20.12
2018-05-15T07:20:04.270Z,20.11
2018-05-15T07:21:04.273Z,20.19
2018-05-15T07:22:04.230Z,20.04
2018-05-15T07:23:04.215Z,20.10
2018-05-15T07:24:04.206Z,20.19
2018-05-15T07:25:04.186Z,20.22
2018-05-15T07:26:04.174Z,20.32
2018-05-15T07:27:04.158Z,20.27
2018-05-15T07:28:04.142Z,20.27
2018-05-15T07:29:04.129Z,20.30
2018-05-15T07:30:04.116Z,20.26
2018-05-15T07:31:04.101Z,20.30
2018-05-15T07:32:04.084Z,20.42
2018-05-15T07:33:04.120Z,20.40
2018-05-15T07:34:04.057Z,20.42
2018-05-15T07:35:04.041Z,20.49
2018-05-15T07:36:04.028Z,20.46
2018-05-15T07:37:04.012Z,20.55
2018-05-15T07:38:04.009Z,20.53
2018-05-15T07:39:03.987Z,20.58
2018-05-15T07:40:03.969Z,20.55
2018-05-15T07:41:03.953Z,20.59
2018-05-15T07:42:03.941Z,20.60
2018-05-15T07:43:03.925Z,20.67
2018-05-15T07:44:03.911Z,20.67
2018-05-15T07:45:03.899Z,20.73
2018-05-15T07:46:03.886Z,20.64
2018-05-15T07:47:03.871Z,20.71
2018-05-15T07:48:03.853Z,20.75
2018-05-15T07:49:03.839Z,20.88
2018-05-15T07:50:03.882Z,20.85
2018-05-15T07:51:03.811Z,20.86
2018-05-15T07:52:03.797Z,20.89
2018-05-15T07:53:03.790Z,20.93
2018-05-15T07:54:03.769Z,20.95
2018-05-15T07:55:03.753Z,20.93
2018-05-15T07:56:03.741Z,20.98
2018-05-15T07:57:03.726Z,21.00
2018-05-15T07:58:03.710Z,21.10
2018-05-15T07:59:03.705Z,21.11
2018-05-15T08:00:03.684Z,21.11
2018-05-15T08:01:03.669Z,21.22
2018-05-15T08:02:03.660Z,21.22
2018-05-15T08:03:03.642Z,21.22
2018-05-15T08:04:03.628Z,21.26
2018-05-15T08:05:03.613Z,21.23
2018-05-15T08:06:03.597Z,21.32
2018-05-15T08:07:03.585Z,21.29
2018-05-15T08:08:03.573Z,21.26
2018-05-15T08:09:03.555Z,21.35
2018-05-15T08:10:03.542Z,21.35
2018-05-15T08:11:03.529Z,21.30
2018-05-15T08:12:03.515Z,21.26
2018-05-15T08:13:03.507Z,21.35
2018-05-15T08:14:03.490Z,21.37
2018-05-15T08:15:03.473Z,21.48
2018-05-15T08:16:03.458Z,21.45
2018-05-15T08:17:03.444Z,21.47
2018-05-15T08:18:03.432Z,21.48
2018-05-15T08:19:03.415Z,21.58
2018-05-15T08:20:03.404Z,21.58
2018-05-15T08:21:03.393Z,21.56
2018-05-15T08:22:03.374Z,21.60
2018-05-15T08:23:03.362Z,21.58
2018-05-15T08:24:03.346Z,21.60
2018-05-15T08:25:03.336Z,21.54
2018-05-15T08:26:03.321Z,21.66
2018-05-15T08:27:03.306Z,21.77
2018-05-15T08:28:03.316Z,21.75
2018-05-15T08:29:03.277Z,21.75
2018-05-15T08:30:03.266Z,21.78
2018-05-15T08:31:03.253Z,21.77
2018-05-15T08:32:03.241Z,21.94
2018-05-15T08:33:03.245Z,21.92
2018-05-15T08:34:03.214Z,21.85
2018-05-15T08:35:03.197Z,21.89
2018-05-15T08:36:03.183Z,21.91
2018-05-15T08:37:03.168Z,21.92
2018-05-15T08:38:03.157Z,22.04
2018-05-15T08:39:03.142Z,22.00
2018-05-15T08:40:03.148Z,22.10
2018-05-15T08:41:03.113Z,22.12
2018-05-15T08:42:03.104Z,21.99
2018-05-15T08:43:03.088Z,22.12
2018-05-15T08:44:03.075Z,22.06
2018-05-15T08:45:03.058Z,22.04
2018-05-15T08:46:03.046Z,22.03
2018-05-15T08:47:03.034Z,22.08
2018-05-15T08:48:03.021Z,22.12
2018-05-15T08:49:03.005Z,22.10
2018-05-15T08:50:02.993Z,22.16
2018-05-15T08:51:02.983Z,22.25
2018-05-15T08:52:02.965Z,22.23
2018-05-15T08:53:02.950Z,22.36
2018-05-15T08:54:02.937Z,22.36
2018-05-15T08:55:02.925Z,22.36
2018-05-15T08:56:02.916Z,22.31
2018-05-15T08:57:02.900Z,22.31
2018-05-15T08:58:02.885Z,22.33
2018-05-15T08:59:02.872Z,22.37
2018-05-15T09:00:02.855Z,22.41
2018-05-15T09:01:02.843Z,22.37
2018-05-15T09:02:02.829Z,22.40
2018-05-15T09:03:02.817Z,22.53
2018-05-15T09:04:02.804Z,22.47
2018-05-15T09:05:02.792Z,22.53
2018-05-15T09:06:02.780Z,22.65
2018-05-15T09:07:02.763Z,22.63
2018-05-15T09:08:02.754Z,22.61
2018-05-15T09:09:02.737Z,22.59
2018-05-15T09:10:02.726Z,22.68
2018-05-15T09:11:02.712Z,22.63
2018-05-15T09:12:02.697Z,22.70
2018-05-15T09:13:02.683Z,22.74
2018-05-15T09:14:02.680Z,22.74
2018-05-15T09:15:02.659Z,22.78
2018-05-15T09:16:02.644Z,22.77
2018-05-15T09:17:02.630Z,22.77
2018-05-15T09:18:02.623Z,22.77
2018-05-15T09:19:02.613Z,22.81
2018-05-15T09:20:02.592Z,22.89
2018-05-15T09:21:02.581Z,22.86
2018-05-15T09:22:02.565Z,22.80
2018-05-15T09:23:02.552Z,22.83
2018-05-15T09:24:02.539Z,22.93
2018-05-15T09:25:02.525Z,22.93
2018-05-15T09:26:02.511Z,22.95
2018-05-15T09:27:02.499Z,22.96
2018-05-15T09:28:02.488Z,22.99
2018-05-15T09:29:02.476Z,23.10
2018-05-15T09:30:02.464Z,23.04
2018-05-15T09:31:02.449Z,23.16
2018-05-15T09:32:02.437Z,23.14
2018-05-15T09:33:02.421Z,23.13
2018-05-15T09:34:02.408Z,23.17
2018-05-15T09:35:02.397Z,23.32
2018-05-15T09:36:02.385Z,23.20
2018-05-15T09:37:02.372Z,23.28
2018-05-15T09:38:02.358Z,23.29
2018-05-15T09:39:02.345Z,23.25
2018-05-15T09:40:02.334Z,23.44
2018-05-15T09:41:02.323Z,23.36
2018-05-15T09:42:02.305Z,23.40
2018-05-15T09:43:02.292Z,23.25
2018-05-15T09:44:02.280Z,23.37
2018-05-15T09:45:02.269Z,23.37
2018-05-15T09:46:02.261Z,23.34
2018-05-15T09:47:02.242Z,23.37
2018-05-15T09:48:02.228Z,23.37
2018-05-15T09:49:02.215Z,23.40
2018-05-15T09:50:02.223Z,23.25
2018-05-15T09:51:02.211Z,23.44
2018-05-15T09:52:02.178Z,23.33
2018-05-15T09:53:02.164Z,23.40
2018-05-15T09:54:02.158Z,23.37
2018-05-15T09:55:02.142Z,23.40
2018-05-15T09:56:02.127Z,23.32
2018-05-15T09:57:02.117Z,23.44
2018-05-15T09:58:02.127Z,23.54
2018-05-15T09:59:02.102Z,23.51
2018-05-15T10:00:02.080Z,23.64
2018-05-15T10:01:02.065Z,23.67
2018-05-15T10:02:02.060Z,23.69
2018-05-15T10:03:02.067Z,23.71
2018-05-15T10:04:02.044Z,23.74
2018-05-15T10:05:02.013Z,23.77
2018-05-15T10:06:01.999Z,23.67
2018-05-15T10:07:01.986Z,23.79
2018-05-15T10:08:02.050Z,23.79
2018-05-15T10:09:01.963Z,23.81
2018-05-15T10:10:01.951Z,23.82
2018-05-15T10:11:01.937Z,23.84
2018-05-15T10:12:01.925Z,23.86
2018-05-15T10:13:01.926Z,23.92
2018-05-15T10:14:01.915Z,24.01
2018-05-15T10:15:01.891Z,24.07
2018-05-15T10:16:01.877Z,24.16
2018-05-15T10:17:01.866Z,24.16
2018-05-15T10:18:01.855Z,24.37
2018-05-15T10:19:01.842Z,24.62
2018-05-15T10:20:01.926Z,24.79
2018-05-15T10:21:01.822Z,25.09
2018-05-15T10:22:01.813Z,25.40
2018-05-15T10:23:01.806Z,25.83
2018-05-15T10:24:01.808Z,26.45
2018-05-15T10:25:01.794Z,26.73
2018-05-15T10:26:01.779Z,27.00
2018-05-15T10:27:01.771Z,27.68
2018-05-15T10:28:01.763Z,28.35
2018-05-15T10:29:01.757Z,28.94
2018-05-15T10:30:01.865Z,29.65
2018-05-15T10:31:01.745Z,29.76
2018-05-15T10:32:01.739Z,30.23
2018-05-15T10:33:01.731Z,30.67
2018-05-15T10:34:01.728Z,30.76
2018-05-15T10:35:01.724Z,30.36
2018-05-15T10:36:01.721Z,30.67
2018-05-15T10:37:01.714Z,31.10
2018-05-15T10:38:01.709Z,31.45
2018-05-15T10:39:01.706Z,31.95
2018-05-15T10:40:01.704Z,32.19
2018-05-15T10:41:01.701Z,32.57
2018-05-15T10:42:01.695Z,32.81
2018-05-15T10:43:01.694Z,32.93
2018-05-15T10:44:01.708Z,33.23
2018-05-15T10:45:01.693Z,33.32
2018-05-15T10:46:01.687Z,33.75
2018-05-15T10:47:01.682Z,33.31
2018-05-15T10:48:01.684Z,32.12
2018-05-15T10:49:01.679Z,32.95
2018-05-15T10:50:01.675Z,33.15
2018-05-15T10:51:01.676Z,33.82
2018-05-15T10:52:01.672Z,34.16
2018-05-15T10:53:01.668Z,34.66
2018-05-15T10:54:01.667Z,35.04
2018-05-15T10:55:01.668Z,35.05
2018-05-15T10:56:01.670Z,35.47
2018-05-15T10:57:01.664Z,35.81
2018-05-15T10:58:01.662Z,36.14
2018-05-15T10:59:01.663Z,36.41
2018-05-15T11:00:01.667Z,36.70
2018-05-15T11:01:01.661Z,36.38
2018-05-15T11:02:01.662Z,36.76
2018-05-15T11:03:01.660Z,36.88
2018-05-15T11:04:01.672Z,36.81
2018-05-15T11:05:01.660Z,36.92
2018-05-15T11:06:01.663Z,36.97
2018-05-15T11:07:01.662Z,37.03
2018-05-15T11:08:01.665Z,37.06
2018-05-15T11:09:01.665Z,37.09
2018-05-15T11:10:01.663Z,37.15
2018-05-15T11:11:01.664Z,37.06
2018-05-15T11:12:01.666Z,36.73
2018-05-15T11:13:01.669Z,36.33
2018-05-15T11:14:01.665Z,36.43
2018-05-15T11:15:01.668Z,36.70
2018-05-15T11:16:01.669Z,36.89
2018-05-15T11:17:01.670Z,37.04
2018-05-15T11:18:01.686Z,37.22
2018-05-15T11:19:01.669Z,37.04
2018-05-15T11:20:01.679Z,36.92
2018-05-15T11:21:01.672Z,36.41
2018-05-15T11:22:01.673Z,36.57
2018-05-15T11:23:01.681Z,36.84
2018-05-15T11:24:01.681Z,36.91
2018-05-15T11:25:01.677Z,37.03
2018-05-15T11:26:01.680Z,37.18
2018-05-15T11:27:01.693Z,37.37
2018-05-15T11:28:01.679Z,37.07
2018-05-15T11:29:01.691Z,35.94
2018-05-15T11:30:01.683Z,35.59
2018-05-15T11:31:01.682Z,35.96
2018-05-15T11:32:01.684Z,36.32
2018-05-15T11:33:01.690Z,36.63
2018-05-15T11:34:01.688Z,36.81
2018-05-15T11:35:01.700Z,36.92
2018-05-15T11:36:01.784Z,37.18
2018-05-15T11:37:01.685Z,37.37
2018-05-15T11:38:01.685Z,37.57
2018-05-15T11:39:01.688Z,37.68
2018-05-15T11:40:01.688Z,37.68
2018-05-15T11:41:01.690Z,37.64
2018-05-15T11:42:01.686Z,37.48
2018-05-15T11:43:01.686Z,37.22
2018-05-15T11:44:01.683Z,36.69
2018-05-15T11:45:01.683Z,36.29
2018-05-15T11:46:01.682Z,35.81
2018-05-15T11:47:01.684Z,35.35
2018-05-15T11:48:01.780Z,34.78
2018-05-15T11:49:02.354Z,34.33
2018-05-15T11:50:02.729Z,33.88
2018-05-15T11:51:02.240Z,33.47
2018-05-15T11:52:02.522Z,32.97
2018-05-15T11:53:02.559Z,32.79
2018-05-15T11:54:01.774Z,32.38
2018-05-15T11:55:01.656Z,32.00
2018-05-15T11:56:01.772Z,31.79
2018-05-15T11:57:01.654Z,31.44
2018-05-15T11:58:01.758Z,31.14
2018-05-15T11:59:01.691Z,30.88
2018-05-15T12:00:01.715Z,30.67
2018-05-15T12:01:01.631Z,30.43
2018-05-15T12:02:01.623Z,30.29
2018-05-15T12:03:01.616Z,30.14
2018-05-15T12:04:01.691Z,29.92
2018-05-15T12:05:01.607Z,29.77
2018-05-15T12:06:01.598Z,29.62
2018-05-15T12:07:01.591Z,29.53
2018-05-15T12:08:01.613Z,29.39
2018-05-15T12:09:01.612Z,29.25
2018-05-15T12:10:01.571Z,29.10
2018-05-15T12:11:01.565Z,29.07
2018-05-15T12:12:01.558Z,28.97
2018-05-15T12:13:01.585Z,28.83
2018-05-15T12:14:01.540Z,28.72
2018-05-15T12:15:01.615Z,28.64
2018-05-15T12:16:01.581Z,28.50
2018-05-15T12:17:01.520Z,28.43
2018-05-15T12:18:01.521Z,28.38
2018-05-15T12:19:01.503Z,28.35
2018-05-15T12:20:01.495Z,28.31
2018-05-15T12:21:01.571Z,28.16
2018-05-15T12:22:01.479Z,28.13
2018-05-15T12:23:01.470Z,28.06
2018-05-15T12:24:01.461Z,28.04
2018-05-15T12:25:01.454Z,28.00
2018-05-15T12:26:01.445Z,28.01
2018-05-15T12:27:01.441Z,27.95
2018-05-15T12:28:01.481Z,27.82
2018-05-15T12:29:01.455Z,27.90
2018-05-15T12:30:01.462Z,27.82
2018-05-15T12:31:01.512Z,27.90
2018-05-15T12:32:01.670Z,27.90
2018-05-15T12:33:01.385Z,27.86
2018-05-15T12:34:01.429Z,27.86
2018-05-15T12:35:01.380Z,27.73
2018-05-15T12:36:01.359Z,27.78
2018-05-15T12:37:01.350Z,27.82
2018-05-15T12:38:01.338Z,27.79
2018-05-15T12:39:01.343Z,27.83
2018-05-15T12:40:01.347Z,27.88
2018-05-15T12:41:01.310Z,27.83
2018-05-15T12:42:01.470Z,27.90
2018-05-15T12:43:01.293Z,27.94
2018-05-15T12:44:01.283Z,27.91
2018-05-15T12:45:01.271Z,27.91
2018-05-15T12:46:01.264Z,27.86
2018-05-15T12:47:01.258Z,27.88
2018-05-15T12:48:01.314Z,27.90
2018-05-15T12:49:01.236Z,27.88
2018-05-15T12:50:01.228Z,27.88
2018-05-15T12:51:01.218Z,27.86
2018-05-15T12:52:01.217Z,27.71